createdAt,value
2018-06-08T00:01:33.165Z,99.90
2018-06-08T00:04:02.074Z,99.90
2018-06-08T00:06:30.974Z,99.90
2018-06-08T00:08:59.949Z,99.90
2018-06-08T00:11:28.845Z,99.90
2018-06-08T00:13:57.781Z,99.90
2018-06-08T00:16:26.694Z,99.90
2018-06-08T00:18:55.615Z,99.90
2018-06-08T00:21:24.536Z,99.90
2018-06-08T00:23:53.482Z,99.90
2018-06-08T00:26:22.433Z,99.90
2018-06-08T00:28:51.348Z,99.90
2018-06-08T00:31:20.253Z,99.90
2018-06-08T00:33:49.228Z,99.90
2018-06-08T00:38:46.614Z,99.90
2018-06-08T00:43:44.030Z,99.90
2018-06-08T00:46:12.927Z,99.90
2018-06-08T00:48:41.845Z,99.90
2018-06-08T00:51:10.762Z,99.90
2018-06-08T00:53:39.663Z,99.90
2018-06-08T00:56:19.389Z,99.90
2018-06-08T00:58:48.314Z,99.90
2018-06-08T01:01:17.218Z,99.90
2018-06-08T01:03:46.146Z,99.90
2018-06-08T01:06:15.042Z,99.90
2018-06-08T01:11:12.442Z,99.90
2018-06-08T01:13:41.336Z,99.90
2018-06-08T01:16:10.270Z,99.90
2018-06-08T01:18:39.225Z,99.90
2018-06-08T01:21:08.127Z,99.90
2018-06-08T01:23:37.069Z,99.90
2018-06-08T01:28:34.455Z,99.90
2018-06-08T01:33:31.846Z,99.90
2018-06-08T01:36:00.729Z,99.90
2018-06-08T01:38:29.617Z,99.90
2018-06-08T01:40:58.530Z,99.90
2018-06-08T01:43:27.472Z,99.90
2018-06-08T01:45:56.380Z,99.90
2018-06-08T01:48:25.341Z,99.90
2018-06-08T01:50:54.287Z,99.90
2018-06-08T01:53:23.187Z,99.90
2018-06-08T01:55:52.146Z,99.90
2018-06-08T01:58:21.073Z,99.90
2018-06-08T02:00:50.058Z,99.90
2018-06-08T02:03:18.971Z,99.90
2018-06-08T02:05:47.857Z,99.90
2018-06-08T02:08:16.772Z,99.90
2018-06-08T02:10:45.701Z,99.90
2018-06-08T02:13:14.617Z,99.90
2018-06-08T02:15:43.552Z,99.90
2018-06-08T02:18:12.478Z,99.90
2018-06-08T02:20:41.770Z,99.90
2018-06-08T02:25:39.161Z,99.90
2018-06-08T02:28:08.065Z,99.90
2018-06-08T02:30:37.007Z,99.90
2018-06-08T02:33:05.950Z,99.90
2018-06-08T02:35:34.841Z,99.90
2018-06-08T02:38:03.773Z,99.90
2018-06-08T02:40:32.707Z,99.90
2018-06-08T02:43:01.612Z,99.90
2018-06-08T02:45:30.521Z,99.90
2018-06-08T02:47:59.490Z,99.90
2018-06-08T02:57:10.209Z,99.90
2018-06-08T02:59:39.126Z,99.90
2018-06-08T03:02:08.062Z,99.90
2018-06-08T03:04:36.984Z,99.90
2018-06-08T03:07:06.503Z,99.90
2018-06-08T03:09:35.434Z,99.90
2018-06-08T03:12:04.389Z,99.90
2018-06-08T03:14:33.404Z,99.90
2018-06-08T03:17:02.318Z,99.90
2018-06-08T03:19:31.233Z,99.90
2018-06-08T03:22:00.166Z,99.90
2018-06-08T03:24:29.116Z,99.90
2018-06-08T03:26:58.069Z,99.90
2018-06-08T03:29:26.993Z,99.90
2018-06-08T03:31:55.924Z,99.90
2018-06-08T03:34:24.902Z,99.90
2018-06-08T03:36:53.819Z,99.90
2018-06-08T03:39:22.745Z,99.90
2018-06-08T03:41:51.666Z,99.90
2018-06-08T03:44:20.576Z,99.90
2018-06-08T03:46:49.483Z,99.90
2018-06-08T03:49:18.446Z,99.90
2018-06-08T03:51:47.357Z,99.90
2018-06-08T03:54:16.282Z,99.90
2018-06-08T03:56:48.101Z,99.90
2018-06-08T03:59:18.125Z,99.90
2018-06-08T04:01:47.085Z,99.90
2018-06-08T04:04:15.989Z,99.90
2018-06-08T04:06:44.896Z,99.90
2018-06-08T04:09:13.806Z,99.90
2018-06-08T04:11:42.714Z,99.90
2018-06-08T04:14:11.652Z,99.90
2018-06-08T04:16:40.567Z,99.90
2018-06-08T04:19:09.485Z,99.90
2018-06-08T04:21:38.405Z,99.90
2018-06-08T04:24:07.382Z,99.90
2018-06-08T04:26:36.313Z,99.90
2018-06-08T04:29:05.257Z,99.90
2018-06-08T04:31:34.166Z,99.90
2018-06-08T04:34:03.133Z,99.90
2018-06-08T04:36:32.046Z,99.90
2018-06-08T04:39:00.943Z,99.90
2018-06-08T04:41:29.849Z,99.90
2018-06-08T04:43:58.751Z,99.90
2018-06-08T04:46:27.704Z,99.90
2018-06-08T04:48:56.624Z,99.90
2018-06-08T04:51:25.543Z,99.90
2018-06-08T04:53:54.453Z,99.90
2018-06-08T04:56:23.365Z,99.90
2018-06-08T04:58:52.325Z,99.90
2018-06-08T05:01:21.296Z,99.90
2018-06-08T05:03:50.229Z,99.90
2018-06-08T05:06:19.117Z,99.90
2018-06-08T05:08:48.033Z,99.90
2018-06-08T05:11:16.921Z,99.90
2018-06-08T05:13:45.874Z,99.90
2018-06-08T05:16:14.769Z,99.90
2018-06-08T05:18:43.665Z,99.90
2018-06-08T05:21:12.561Z,99.90
2018-06-08T05:23:41.450Z,99.90
2018-06-08T05:26:10.402Z,99.90
2018-06-08T05:28:39.321Z,99.90
2018-06-08T05:31:08.217Z,99.90
2018-06-08T05:33:37.105Z,99.90
2018-06-08T05:36:06.091Z,99.90
2018-06-08T05:38:35.014Z,99.90
2018-06-08T05:41:03.913Z,99.90
2018-06-08T05:43:32.800Z,99.90
2018-06-08T05:48:30.292Z,99.90
2018-06-08T05:50:59.173Z,99.90
2018-06-08T05:53:28.069Z,99.90
2018-06-08T05:55:56.961Z,99.90
2018-06-08T05:58:25.853Z,99.90
2018-06-08T06:00:54.749Z,99.90
2018-06-08T06:03:23.637Z,99.90
2018-06-08T06:05:52.530Z,99.90
2018-06-08T06:08:21.441Z,99.90
2018-06-08T06:10:50.342Z,99.70
2018-06-08T06:13:19.261Z,96.90
2018-06-08T06:15:48.185Z,95.60
2018-06-08T06:18:17.078Z,94.80
2018-06-08T06:20:46.362Z,94.00
2018-06-08T06:23:15.264Z,92.40
2018-06-08T06:25:44.177Z,91.20
2018-06-08T06:28:13.069Z,90.90
2018-06-08T06:30:41.965Z,88.30
2018-06-08T06:33:10.867Z,88.00
2018-06-08T06:35:39.761Z,87.40
2018-06-08T06:38:08.656Z,84.70
2018-06-08T06:40:37.560Z,82.50
2018-06-08T06:43:06.593Z,80.20
2018-06-08T06:45:35.509Z,79.10
2018-06-08T06:48:04.693Z,78.40
2018-06-08T06:50:33.770Z,76.30
2018-06-08T06:53:02.815Z,75.10
2018-06-08T06:55:31.919Z,74.30
2018-06-08T06:58:01.188Z,73.00
2018-06-08T07:00:30.110Z,73.30
2018-06-08T07:02:59.043Z,72.50
2018-06-08T07:08:00.730Z,70.20
2018-06-08T07:10:31.033Z,68.40
2018-06-08T07:13:00.989Z,69.10
2018-06-08T07:15:30.838Z,67.20
2018-06-08T07:18:00.966Z,67.70
2018-06-08T07:23:01.505Z,71.10
2018-06-08T07:25:32.448Z,68.60
2018-06-08T07:28:03.597Z,67.40
2018-06-08T07:30:35.722Z,66.30
2018-06-08T07:33:09.173Z,65.70
2018-06-08T07:35:44.464Z,65.20
2018-06-08T07:38:16.776Z,64.30
2018-06-08T07:40:52.522Z,64.90
2018-06-08T07:43:21.811Z,64.40
2018-06-08T07:45:53.339Z,62.50
2018-06-08T07:48:26.113Z,62.00
2018-06-08T07:51:02.106Z,62.60
2018-06-08T07:53:34.197Z,61.60
2018-06-08T07:56:07.249Z,59.40
2018-06-08T07:58:36.949Z,61.00
2018-06-08T08:01:07.217Z,60.30
2018-06-08T08:08:40.734Z,56.70
2018-06-08T08:11:14.211Z,57.10
2018-06-08T08:13:44.094Z,57.80
2018-06-08T08:16:19.931Z,58.90
2018-06-08T08:18:49.616Z,59.10
2018-06-08T08:21:19.013Z,59.00
2018-06-08T08:23:52.157Z,57.50
2018-06-08T08:26:26.315Z,57.40
2018-06-08T08:28:55.229Z,57.10
2018-06-08T08:31:24.197Z,56.60
2018-06-08T08:33:53.154Z,56.00
2018-06-08T08:36:22.110Z,56.10
2018-06-08T08:38:51.028Z,56.00
2018-06-08T08:41:20.045Z,56.00
2018-06-08T08:43:48.997Z,56.30
2018-06-08T08:46:17.914Z,56.70
2018-06-08T08:48:46.860Z,57.30
2018-06-08T08:51:15.863Z,59.00
2018-06-08T08:53:44.799Z,59.50
2018-06-08T08:56:13.765Z,58.90
2018-06-08T08:58:42.713Z,60.30
2018-06-08T09:01:11.646Z,62.20
2018-06-08T09:03:40.594Z,59.40
2018-06-08T09:06:09.525Z,58.40
2018-06-08T09:08:38.436Z,56.90
2018-06-08T09:11:07.393Z,57.80
2018-06-08T09:13:36.562Z,57.60
2018-06-08T09:16:06.657Z,58.80
2018-06-08T09:18:36.825Z,58.20
2018-06-08T09:21:06.832Z,57.20
2018-06-08T09:23:38.684Z,58.10
2018-06-08T09:26:11.486Z,57.70
2018-06-08T09:28:47.504Z,57.20
2018-06-08T09:31:21.957Z,57.40
2018-06-08T09:33:53.934Z,56.40
2018-06-08T09:36:30.550Z,55.60
2018-06-08T09:39:06.484Z,55.00
2018-06-08T09:41:37.199Z,54.10
2018-06-08T09:44:09.731Z,55.40
2018-06-08T09:46:43.519Z,55.90
2018-06-08T09:49:16.706Z,54.30
2018-06-08T09:51:50.397Z,53.70
2018-06-08T09:54:23.334Z,54.20
2018-06-08T09:56:56.042Z,52.50
2018-06-08T09:59:26.435Z,51.90
2018-06-08T10:02:00.586Z,52.50
2018-06-08T10:04:34.691Z,52.80
2018-06-08T10:07:09.703Z,52.40
2018-06-08T10:09:40.511Z,51.40
2018-06-08T10:12:09.970Z,51.70
2018-06-08T10:14:43.218Z,50.60
2018-06-08T10:17:20.765Z,49.40
2018-06-08T10:19:51.842Z,47.40
2018-06-08T10:24:51.896Z,50.70
2018-06-08T10:27:24.498Z,51.00
2018-06-08T10:29:57.177Z,49.50
2018-06-08T10:32:27.628Z,49.30
2018-06-08T10:34:58.082Z,48.70
2018-06-08T10:37:27.558Z,50.40
2018-06-08T10:40:00.925Z,50.90
2018-06-08T10:42:33.858Z,51.40
2018-06-08T10:45:07.696Z,52.60
2018-06-08T10:47:41.226Z,52.40
2018-06-08T10:50:12.834Z,52.20
2018-06-08T10:52:43.278Z,52.40
2018-06-08T10:55:14.835Z,50.50
2018-06-08T10:57:45.141Z,50.40
2018-06-08T11:00:19.428Z,51.30
2018-06-08T11:02:50.934Z,51.30
2018-06-08T11:05:25.670Z,51.40
2018-06-08T11:08:00.876Z,51.70
2018-06-08T11:10:33.717Z,50.60
2018-06-08T11:13:04.634Z,50.70
2018-06-08T11:15:37.218Z,49.10
2018-06-08T11:18:11.251Z,48.20
2018-06-08T11:20:43.254Z,48.70
2018-06-08T11:25:49.277Z,47.10
2018-06-08T11:28:20.595Z,48.40
2018-06-08T11:30:50.016Z,47.60
2018-06-08T11:33:20.622Z,48.60
2018-06-08T11:35:54.744Z,52.40
2018-06-08T11:38:27.912Z,51.30
2018-06-08T11:40:58.419Z,51.60
2018-06-08T11:43:28.418Z,53.50
2018-06-08T11:45:58.854Z,55.10
2018-06-08T11:48:29.449Z,54.90
2018-06-08T11:51:00.994Z,53.00
2018-06-08T11:53:33.966Z,52.50
2018-06-08T11:58:39.083Z,55.60
2018-06-08T12:01:09.403Z,56.60
2018-06-08T12:03:44.154Z,57.30
2018-06-08T12:06:19.166Z,57.00
2018-06-08T12:08:49.318Z,56.30
2018-06-08T12:11:21.205Z,53.90
2018-06-08T12:13:54.815Z,52.40
2018-06-08T12:16:31.113Z,52.00
2018-06-08T12:19:02.741Z,50.90
2018-06-08T12:21:33.734Z,51.20
2018-06-08T12:24:06.977Z,52.10
2018-06-08T12:26:39.825Z,52.80
2018-06-08T12:29:14.542Z,53.80
2018-06-08T12:31:50.028Z,53.10
2018-06-08T12:34:22.741Z,53.00
2018-06-08T12:36:54.379Z,54.10
2018-06-08T12:39:27.809Z,52.40
2018-06-08T12:42:02.270Z,50.80
2018-06-08T12:44:34.429Z,50.90
2018-06-08T12:47:05.982Z,50.30
2018-06-08T12:49:44.596Z,51.50
2018-06-08T12:52:21.081Z,54.40
2018-06-08T12:54:56.370Z,53.60
2018-06-08T13:00:13.961Z,54.80
2018-06-08T13:02:46.392Z,54.40
2018-06-08T13:05:20.040Z,53.70
2018-06-08T13:07:51.575Z,54.90
2018-06-08T13:10:25.567Z,53.50
2018-06-08T13:12:57.386Z,53.40
2018-06-08T13:15:30.411Z,52.70
2018-06-08T13:18:00.607Z,53.30
2018-06-08T13:20:36.056Z,54.40
2018-06-08T13:23:11.349Z,54.80
2018-06-08T13:25:40.943Z,53.80
2018-06-08T13:28:18.464Z,54.40
2018-06-08T13:30:53.410Z,53.60
2018-06-08T13:33:25.544Z,53.70
2018-06-08T13:35:56.534Z,55.10
2018-06-08T13:38:29.686Z,53.40
2018-06-08T13:41:03.630Z,52.70
2018-06-08T13:43:37.558Z,52.90
2018-06-08T13:46:19.358Z,54.10
2018-06-08T13:48:52.868Z,54.00
2018-06-08T13:51:26.085Z,54.90
2018-06-08T13:53:58.102Z,54.00
2018-06-08T13:56:29.481Z,54.50
2018-06-08T13:59:01.091Z,53.70
2018-06-08T14:01:32.341Z,54.60
2018-06-08T14:04:05.618Z,54.00
2018-06-08T14:06:35.843Z,54.80
2018-06-08T14:09:16.842Z,55.00
2018-06-08T14:11:51.217Z,55.20
2018-06-08T14:14:21.709Z,54.50
2018-06-08T14:19:21.329Z,55.10
2018-06-08T14:21:56.106Z,55.20
2018-06-08T14:24:29.681Z,55.40
2018-06-08T14:27:03.345Z,55.40
2018-06-08T14:29:39.109Z,55.30
2018-06-08T14:32:12.305Z,54.90
2018-06-08T14:34:52.710Z,55.70
2018-06-08T14:37:26.367Z,55.90
2018-06-08T14:40:01.616Z,55.40
2018-06-08T14:42:31.646Z,55.10
2018-06-08T14:45:11.549Z,54.70
2018-06-08T14:47:43.393Z,55.40
2018-06-08T14:50:18.684Z,55.90
2018-06-08T14:52:56.970Z,56.00
2018-06-08T14:55:31.026Z,56.30
2018-06-08T14:58:02.033Z,56.80
2018-06-08T15:00:34.509Z,57.40
2018-06-08T15:03:08.755Z,58.20
2018-06-08T15:05:38.186Z,56.70
2018-06-08T15:08:10.479Z,56.50
2018-06-08T15:10:40.591Z,56.30
2018-06-08T15:13:14.849Z,56.20
2018-06-08T15:15:48.777Z,57.20
2018-06-08T15:18:22.812Z,57.00
2018-06-08T15:20:54.789Z,57.30
2018-06-08T15:23:29.300Z,57.30
2018-06-08T15:26:01.898Z,57.20
2018-06-08T15:28:35.261Z,57.70
2018-06-08T15:31:04.503Z,58.60
2018-06-08T15:33:38.127Z,58.40
2018-06-08T15:36:10.332Z,58.80
2018-06-08T15:38:43.397Z,58.60
2018-06-08T15:41:12.961Z,58.40
2018-06-08T15:43:47.009Z,57.70
2018-06-08T15:46:21.358Z,57.90
2018-06-08T15:48:54.721Z,57.70
2018-06-08T15:51:29.069Z,59.10
2018-06-08T15:54:00.194Z,58.90
2018-06-08T15:56:34.908Z,58.00
2018-06-08T15:59:08.628Z,58.70
2018-06-08T16:01:40.612Z,58.80
2018-06-08T16:04:13.657Z,58.30
2018-06-08T16:06:47.671Z,58.60
2018-06-08T16:09:20.981Z,58.90
2018-06-08T16:11:53.694Z,59.80
2018-06-08T16:14:26.918Z,60.30
2018-06-08T16:16:59.813Z,60.70
2018-06-08T16:19:32.807Z,61.40
2018-06-08T16:22:05.706Z,61.40
2018-06-08T16:24:39.785Z,62.20
2018-06-08T16:27:12.847Z,62.60
2018-06-08T16:29:45.757Z,63.50
2018-06-08T16:32:18.698Z,62.80
2018-06-08T16:34:51.886Z,63.50
2018-06-08T16:37:23.986Z,63.50
2018-06-08T16:39:56.911Z,61.60
2018-06-08T16:42:29.821Z,62.80
2018-06-08T16:45:02.842Z,63.20
2018-06-08T16:47:35.897Z,63.60
2018-06-08T16:50:09.026Z,62.20
2018-06-08T16:52:41.012Z,62.20
2018-06-08T16:55:10.045Z,61.90
2018-06-08T16:57:38.957Z,63.20
2018-06-08T17:00:07.890Z,62.90
2018-06-08T17:02:36.805Z,63.80
2018-06-08T17:05:06.041Z,63.90
2018-06-08T17:07:34.988Z,64.50
2018-06-08T17:10:04.034Z,64.30
2018-06-08T17:12:33.015Z,65.20
2018-06-08T17:15:01.984Z,65.50
2018-06-08T17:17:30.898Z,66.00
2018-06-08T17:19:59.820Z,67.30
2018-06-08T17:22:28.729Z,65.70
2018-06-08T17:24:57.647Z,66.20
2018-06-08T17:27:26.586Z,66.90
2018-06-08T17:29:55.499Z,65.50
2018-06-08T17:32:24.438Z,65.90
2018-06-08T17:34:53.367Z,65.20
2018-06-08T17:37:22.355Z,64.60
2018-06-08T17:39:51.277Z,65.90
2018-06-08T17:42:20.225Z,64.60
2018-06-08T17:44:49.141Z,63.40
2018-06-08T17:47:18.078Z,63.80
2018-06-08T17:49:47.031Z,63.90
2018-06-08T17:52:15.949Z,64.00
2018-06-08T17:54:44.883Z,61.30
2018-06-08T17:57:13.852Z,61.90
2018-06-08T17:59:42.778Z,61.40
2018-06-08T18:02:11.778Z,61.00
2018-06-08T18:04:40.697Z,61.30
2018-06-08T18:07:09.642Z,61.50
2018-06-08T18:09:38.577Z,62.50
2018-06-08T18:12:07.537Z,62.80
2018-06-08T18:17:05.068Z,62.80
2018-06-08T18:19:33.970Z,62.40
2018-06-08T18:22:02.930Z,62.20
2018-06-08T18:24:31.890Z,62.80
2018-06-08T18:27:00.835Z,62.30
2018-06-08T18:29:29.762Z,63.50
2018-06-08T18:31:58.681Z,61.90
2018-06-08T18:34:28.863Z,62.20
2018-06-08T18:36:57.832Z,62.40
2018-06-08T18:39:26.717Z,62.80
2018-06-08T18:41:55.617Z,62.80
2018-06-08T18:44:24.979Z,63.40
2018-06-08T18:46:53.885Z,64.20
2018-06-08T18:49:22.812Z,64.00
2018-06-08T18:51:51.859Z,64.30
2018-06-08T18:54:20.871Z,64.70
2018-06-08T18:56:49.829Z,65.00
2018-06-08T18:59:18.731Z,65.90
2018-06-08T19:01:47.718Z,66.60
2018-06-08T19:04:16.649Z,66.60
2018-06-08T19:06:49.675Z,67.40
2018-06-08T19:09:22.639Z,68.30
2018-06-08T19:11:52.578Z,68.40
2018-06-08T19:14:22.365Z,68.40
2018-06-08T19:16:53.364Z,68.40
2018-06-08T19:19:24.185Z,69.90
2018-06-08T19:21:53.956Z,71.70
2018-06-08T19:24:25.242Z,72.60
2018-06-08T19:26:57.900Z,74.70
2018-06-08T19:29:28.523Z,75.20
2018-06-08T19:31:58.771Z,76.30
2018-06-08T19:34:27.812Z,77.00
2018-06-08T19:36:56.948Z,77.80
2018-06-08T19:39:25.881Z,78.40
2018-06-08T19:41:56.426Z,79.90
2018-06-08T19:44:25.615Z,81.00
2018-06-08T19:46:56.195Z,82.10
2018-06-08T19:49:25.252Z,84.00
2018-06-08T19:51:54.282Z,85.40
2018-06-08T19:54:23.618Z,86.50
2018-06-08T19:56:52.897Z,86.70
2018-06-08T19:59:21.797Z,87.20
2018-06-08T20:01:50.725Z,88.00
2018-06-08T20:04:20.469Z,88.40
2018-06-08T20:06:49.397Z,89.10
2018-06-08T20:09:18.358Z,89.90
2018-06-08T20:11:47.329Z,89.80
2018-06-08T20:14:16.353Z,89.60
2018-06-08T20:16:45.307Z,90.30
2018-06-08T20:19:14.201Z,90.70
2018-06-08T20:21:43.149Z,91.40
2018-06-08T20:24:12.037Z,91.70
2018-06-08T20:26:40.929Z,91.70
2018-06-08T20:29:09.885Z,91.40
2018-06-08T20:31:38.788Z,91.30
2018-06-08T20:34:07.722Z,91.50
2018-06-08T20:36:36.699Z,91.90
2018-06-08T20:39:07.768Z,91.80
2018-06-08T20:41:36.721Z,92.20
2018-06-08T20:44:05.629Z,92.70
2018-06-08T20:46:34.562Z,93.30
2018-06-08T20:49:03.502Z,92.80
2018-06-08T20:51:32.397Z,92.60
2018-06-08T20:54:13.202Z,92.90
2018-06-08T20:56:46.574Z,93.20
2018-06-08T20:59:18.174Z,93.60
2018-06-08T21:01:47.110Z,94.00
2018-06-08T21:04:16.074Z,94.40
2018-06-08T21:06:45.025Z,94.30
2018-06-08T21:09:13.979Z,94.50
2018-06-08T21:11:42.901Z,94.60
2018-06-08T21:14:11.866Z,94.70
2018-06-08T21:16:40.962Z,95.20
2018-06-08T21:19:09.895Z,95.50
2018-06-08T21:21:38.838Z,95.50
2018-06-08T21:24:07.764Z,95.40
2018-06-08T21:26:36.736Z,95.60
2018-06-08T21:29:05.844Z,95.90
2018-06-08T21:31:34.789Z,96.10
2018-06-08T21:34:03.719Z,96.00
2018-06-08T21:36:37.278Z,96.10
2018-06-08T21:39:07.261Z,96.00
2018-06-08T21:41:39.680Z,96.10
2018-06-08T21:44:16.437Z,95.90
2018-06-08T21:46:45.436Z,96.10
2018-06-08T21:49:14.381Z,95.80
2018-06-08T21:51:51.750Z,95.90
2018-06-08T21:54:31.413Z,96.50
2018-06-08T21:57:16.754Z,96.60
2018-06-08T21:59:51.152Z,97.20
2018-06-08T22:02:20.421Z,97.20
2018-06-08T22:04:51.021Z,97.50
2018-06-08T22:07:28.520Z,97.80
2018-06-08T22:09:57.494Z,97.70
2018-06-08T22:12:26.492Z,97.50
2018-06-08T22:14:55.541Z,98.70
2018-06-08T22:17:24.541Z,98.60
2018-06-08T22:19:53.477Z,98.90
2018-06-08T22:22:22.586Z,98.80
2018-06-08T22:24:53.234Z,99.30
2018-06-08T22:27:23.463Z,99.30
2018-06-08T22:29:52.470Z,99.20
2018-06-08T22:32:22.030Z,99.00
2018-06-08T22:34:52.005Z,98.80
2018-06-08T22:37:26.422Z,98.50
2018-06-08T22:40:02.788Z,98.30
2018-06-08T22:42:35.134Z,98.30
2018-06-08T22:45:08.963Z,98.20
2018-06-08T22:47:45.094Z,98.10
2018-06-08T22:50:15.732Z,97.80
2018-06-08T22:52:50.304Z,98.20
2018-06-08T22:55:24.254Z,98.20
2018-06-08T22:57:55.901Z,98.40
2018-06-08T23:00:28.559Z,98.10
2018-06-08T23:02:57.571Z,98.50
2018-06-08T23:05:26.505Z,98.20
2018-06-08T23:07:56.415Z,98.80
2018-06-08T23:10:25.418Z,98.70
2018-06-08T23:12:54.346Z,99.10
2018-06-08T23:15:23.309Z,99.40
2018-06-08T23:17:52.252Z,99.60
2018-06-08T23:20:21.185Z,99.60
2018-06-08T23:22:50.113Z,99.90
2018-06-08T23:25:19.052Z,99.90
2018-06-08T23:27:47.996Z,99.90
2018-06-08T23:30:16.934Z,99.90
2018-06-08T23:32:45.849Z,99.50
2018-06-08T23:35:14.762Z,99.50
2018-06-08T23:37:43.718Z,99.50
2018-06-08T23:40:12.639Z,99.40
2018-06-08T23:42:41.561Z,99.40
2018-06-08T23:45:10.509Z,99.60
2018-06-08T23:47:39.429Z,99.20
2018-06-08T23:50:08.364Z,99.50
2018-06-08T23:52:37.335Z,99.10
2018-06-08T23:55:06.242Z,99.00
2018-06-08T23:57:35.165Z,99.70
